createdAt,value
2018-08-23T00:00:47.733Z,5.63
2018-08-23T00:03:21.561Z,5.43
2018-08-23T00:05:52.062Z,6.77
2018-08-23T00:08:20.956Z,6.03
2018-08-23T00:10:50.098Z,3.07
2018-08-23T00:13:18.928Z,4.77
2018-08-23T00:15:47.629Z,3.23
2018-08-23T00:18:16.265Z,3.47
2018-08-23T00:20:44.860Z,2.40
2018-08-23T00:23:13.497Z,5.93
2018-08-23T00:25:42.125Z,4.70
2018-08-23T00:28:11.719Z,3.57
2018-08-23T00:30:40.377Z,4.37
2018-08-23T00:33:08.934Z,4.27
2018-08-23T00:35:38.594Z,5.33
2018-08-23T00:38:08.073Z,1.87
2018-08-23T00:40:39.761Z,4.20
2018-08-23T00:43:09.474Z,3.67
2018-08-23T00:45:38.121Z,3.30
2018-08-23T00:48:06.837Z,1.90
2018-08-23T00:50:57.506Z,4.17
2018-08-23T00:53:26.549Z,3.00
2018-08-23T00:56:10.329Z,4.43
2018-08-23T00:58:39.130Z,8.47
2018-08-23T01:01:07.817Z,4.17
2018-08-23T01:03:36.445Z,7.33
2018-08-23T01:06:05.310Z,7.70
2018-08-23T01:08:34.882Z,2.87
2018-08-23T01:11:05.034Z,2.97
2018-08-23T01:13:33.667Z,0.53
2018-08-23T01:16:02.286Z,6.07
2018-08-23T01:18:30.977Z,1.97
2018-08-23T01:20:59.694Z,3.03
2018-08-23T01:23:28.345Z,0.50
2018-08-23T01:25:56.971Z,0.70
2018-08-23T01:28:25.577Z,2.43
2018-08-23T01:30:54.252Z,1.37
2018-08-23T01:33:23.010Z,1.80
2018-08-23T01:35:52.509Z,0.93
2018-08-23T01:38:21.120Z,1.07
2018-08-23T01:40:51.855Z,1.53
2018-08-23T01:43:20.615Z,1.30
2018-08-23T01:45:49.274Z,0.83
2018-08-23T01:48:17.919Z,1.97
2018-08-23T01:50:46.637Z,4.07
2018-08-23T01:53:15.337Z,1.00
2018-08-23T01:55:43.971Z,0.80
2018-08-23T01:58:13.394Z,4.43
2018-08-23T02:00:42.004Z,1.67
2018-08-23T02:03:10.649Z,1.80
2018-08-23T02:05:43.121Z,1.20
2018-08-23T02:08:11.770Z,1.33
2018-08-23T02:10:40.397Z,0.80
2018-08-23T02:13:16.146Z,1.27
2018-08-23T02:15:50.782Z,1.90
2018-08-23T02:18:19.459Z,1.30
2018-08-23T02:20:50.645Z,2.10
2018-08-23T02:23:19.268Z,3.20
2018-08-23T02:25:47.890Z,1.53
2018-08-23T02:28:16.488Z,1.03
2018-08-23T02:30:50.424Z,2.00
2018-08-23T02:33:19.039Z,2.87
2018-08-23T02:36:22.734Z,1.73
2018-08-23T02:38:59.621Z,3.53
2018-08-23T02:41:28.377Z,1.20
2018-08-23T02:43:57.021Z,2.77
2018-08-23T02:46:25.671Z,2.87
2018-08-23T02:48:54.361Z,1.77
2018-08-23T02:51:36.871Z,2.23
2018-08-23T02:54:05.676Z,3.83
2018-08-23T02:56:34.950Z,2.27
2018-08-23T02:59:06.588Z,2.27
2018-08-23T03:01:38.244Z,2.43
2018-08-23T03:04:08.662Z,1.83
2018-08-23T03:07:12.423Z,1.47
2018-08-23T03:09:42.819Z,2.93
2018-08-23T03:12:18.807Z,2.77
2018-08-23T03:14:47.903Z,1.87
2018-08-23T03:18:22.618Z,5.57
2018-08-23T03:21:01.051Z,2.93
2018-08-23T03:23:29.688Z,4.53
2018-08-23T03:25:58.353Z,3.70
2018-08-23T03:28:26.953Z,3.23
2018-08-23T03:31:01.193Z,5.17
2018-08-23T03:33:31.250Z,2.83
2018-08-23T03:35:59.894Z,8.03
2018-08-23T03:38:28.566Z,4.50
2018-08-23T03:40:57.345Z,8.47
2018-08-23T03:43:25.990Z,7.73
2018-08-23T03:45:57.588Z,5.47
2018-08-23T03:48:26.268Z,6.40
2018-08-23T03:50:54.920Z,2.70
2018-08-23T03:53:26.088Z,5.70
2018-08-23T03:56:07.321Z,5.10
2018-08-23T03:58:36.073Z,4.03
2018-08-23T04:01:06.413Z,6.57
2018-08-23T04:03:35.135Z,3.80
2018-08-23T04:06:18.375Z,3.57
2018-08-23T04:08:47.779Z,5.73
2018-08-23T04:11:16.671Z,3.27
2018-08-23T04:13:46.377Z,4.63
2018-08-23T04:16:15.561Z,8.13
2018-08-23T04:18:44.165Z,3.73
2018-08-23T04:21:12.837Z,4.17
2018-08-23T04:23:41.470Z,4.97
2018-08-23T04:26:10.147Z,5.60
2018-08-23T04:28:38.792Z,4.17
2018-08-23T04:31:07.493Z,2.50
2018-08-23T04:33:36.188Z,3.60
2018-08-23T04:36:05.481Z,9.07
2018-08-23T04:38:35.831Z,5.67
2018-08-23T04:41:08.038Z,4.97
2018-08-23T04:43:36.649Z,3.83
2018-08-23T04:46:09.384Z,7.13
2018-08-23T04:48:38.053Z,6.93
2018-08-23T04:51:06.703Z,4.23
2018-08-23T04:53:35.454Z,5.80
2018-08-23T04:56:04.053Z,3.33
2018-08-23T04:58:32.726Z,6.13
2018-08-23T05:01:01.325Z,3.50
2018-08-23T05:03:29.929Z,4.30
2018-08-23T05:05:58.602Z,5.30
2018-08-23T05:08:27.378Z,3.77
2018-08-23T05:10:55.964Z,4.53
2018-08-23T05:13:24.634Z,6.83
2018-08-23T05:15:53.276Z,4.30
2018-08-23T05:18:21.909Z,2.80
2018-08-23T05:20:50.531Z,5.57
2018-08-23T05:23:20.280Z,4.27
2018-08-23T05:25:48.880Z,7.17
2018-08-23T05:28:19.978Z,2.27
2018-08-23T05:30:49.414Z,4.83
2018-08-23T05:33:18.980Z,4.97
2018-08-23T05:35:47.730Z,7.17
2018-08-23T05:38:17.091Z,4.23
2018-08-23T05:40:51.814Z,4.03
2018-08-23T05:43:20.904Z,2.63
2018-08-23T05:45:53.729Z,3.10
2018-08-23T05:48:32.472Z,3.23
2018-08-23T05:51:10.970Z,6.13
2018-08-23T05:53:49.270Z,5.17
2018-08-23T05:56:19.401Z,3.23
2018-08-23T05:58:48.053Z,6.17
2018-08-23T06:01:16.835Z,6.63
2018-08-23T06:03:45.547Z,4.27
2018-08-23T06:06:14.148Z,3.57
2018-08-23T06:08:44.333Z,4.27
2018-08-23T06:11:12.977Z,3.97
2018-08-23T06:13:41.645Z,4.63
2018-08-23T06:16:10.246Z,11.23
2018-08-23T06:18:38.868Z,4.20
2018-08-23T06:21:07.506Z,12.50
2018-08-23T06:24:10.199Z,6.70
2018-08-23T06:26:43.748Z,4.80
2018-08-23T06:29:23.966Z,5.53
2018-08-23T06:32:11.377Z,6.60
2018-08-23T06:34:42.919Z,5.33
2018-08-23T06:37:11.597Z,4.03
2018-08-23T06:39:41.473Z,3.80
2018-08-23T06:42:10.174Z,4.23
2018-08-23T06:44:44.304Z,4.77
2018-08-23T06:47:15.357Z,4.83
2018-08-23T06:49:45.180Z,3.90
2018-08-23T06:52:16.069Z,6.70
2018-08-23T06:54:44.726Z,5.10
2018-08-23T06:57:13.358Z,3.03
2018-08-23T06:59:42.058Z,8.80
2018-08-23T07:02:10.816Z,6.43
2018-08-23T07:04:39.439Z,7.73
2018-08-23T07:07:12.257Z,3.23
2018-08-23T07:09:41.645Z,8.13
2018-08-23T07:12:15.579Z,5.27
2018-08-23T07:14:46.430Z,3.50
2018-08-23T07:17:20.497Z,4.10
2018-08-23T07:19:49.456Z,3.80
2018-08-23T07:22:22.184Z,5.60
2018-08-23T07:24:51.831Z,4.00
2018-08-23T07:27:21.197Z,4.70
2018-08-23T07:29:51.026Z,7.20
2018-08-23T07:32:23.455Z,3.67
2018-08-23T07:34:57.077Z,3.63
2018-08-23T07:37:25.708Z,6.07
2018-08-23T07:39:59.490Z,2.67
2018-08-23T07:42:29.325Z,4.80
2018-08-23T07:44:58.638Z,5.70
2018-08-23T07:47:27.461Z,3.97
2018-08-23T07:49:57.219Z,5.20
2018-08-23T07:52:27.031Z,2.70
2018-08-23T07:54:55.711Z,3.03
2018-08-23T07:57:24.391Z,2.70
2018-08-23T07:59:58.999Z,2.40
2018-08-23T08:02:28.357Z,2.70
2018-08-23T08:04:57.540Z,3.63
2018-08-23T08:07:28.328Z,2.60
2018-08-23T08:09:58.922Z,2.37
2018-08-23T08:12:40.093Z,4.80
2018-08-23T08:15:11.471Z,5.40
2018-08-23T08:17:40.775Z,2.90
2018-08-23T08:20:10.545Z,3.13
2018-08-23T08:52:36.476Z,5.17
2018-08-23T08:55:06.643Z,3.33
2018-08-23T08:57:39.482Z,3.93
2018-08-23T09:00:08.805Z,7.00
2018-08-23T09:02:37.859Z,7.27
2018-08-23T09:05:06.867Z,2.77
2018-08-23T09:07:37.306Z,8.37
2018-08-23T09:10:06.604Z,8.47
2018-08-23T09:12:39.421Z,7.13
2018-08-23T09:15:08.270Z,6.97
2018-08-23T09:17:39.776Z,5.23
2018-08-23T09:20:15.975Z,7.30
2018-08-23T09:22:49.935Z,5.30
2018-08-23T09:25:32.523Z,5.20
2018-08-23T09:28:05.236Z,4.17
2018-08-23T09:30:34.161Z,4.30
2018-08-23T09:33:07.882Z,3.10
2018-08-23T09:35:36.795Z,4.93
2018-08-23T09:38:13.996Z,5.53
2018-08-23T09:40:42.789Z,8.33
2018-08-23T09:43:11.520Z,8.00
2018-08-23T09:45:40.585Z,4.47
2018-08-23T09:48:09.693Z,6.47
2018-08-23T09:50:38.491Z,4.33
2018-08-23T09:53:14.608Z,4.03
2018-08-23T09:55:45.193Z,3.97
2018-08-23T09:58:19.172Z,6.30
2018-08-23T10:00:52.885Z,4.30
2018-08-23T10:03:26.724Z,3.83
2018-08-23T10:06:06.199Z,4.07
2018-08-23T10:08:40.041Z,6.07
2018-08-23T10:11:19.195Z,6.83
2018-08-23T10:13:52.967Z,3.53
2018-08-23T10:16:26.875Z,5.07
2018-08-23T10:18:57.572Z,5.63
2018-08-23T10:21:31.464Z,5.87
2018-08-23T10:24:09.275Z,5.40
2018-08-23T10:26:38.035Z,4.20
2018-08-23T10:29:06.742Z,5.70
2018-08-23T10:31:35.364Z,4.33
2018-08-23T10:34:04.062Z,4.57
2018-08-23T10:36:32.688Z,5.17
2018-08-23T10:39:01.356Z,3.17
2018-08-23T10:41:30.048Z,6.07
2018-08-23T10:43:58.727Z,6.13
2018-08-23T10:46:27.436Z,6.00
2018-08-23T10:48:56.152Z,4.00
2018-08-23T10:51:24.817Z,3.87
2018-08-23T10:53:53.472Z,6.80
2018-08-23T10:56:26.512Z,4.40
2018-08-23T10:58:55.426Z,4.40
2018-08-23T11:01:24.104Z,5.43
2018-08-23T11:03:52.772Z,6.63
2018-08-23T11:06:21.435Z,4.37
2018-08-23T11:08:55.257Z,4.77
2018-08-23T11:11:29.076Z,3.13
2018-08-23T11:13:57.808Z,4.37
2018-08-23T11:16:31.601Z,3.77
2018-08-23T11:19:05.306Z,6.83
2018-08-23T11:21:33.976Z,3.97
2018-08-23T11:24:02.700Z,6.00
2018-08-23T11:26:31.360Z,4.17
2018-08-23T11:29:00.068Z,7.40
2018-08-23T11:31:29.057Z,3.60
2018-08-23T11:33:57.715Z,5.90
2018-08-23T11:36:26.392Z,5.87
2018-08-23T11:38:55.081Z,4.60
2018-08-23T11:41:23.711Z,6.03
2018-08-23T11:43:52.341Z,7.07
2018-08-23T11:46:21.991Z,6.13
2018-08-23T11:48:50.888Z,4.73
2018-08-23T11:51:19.939Z,5.37
2018-08-23T11:53:48.848Z,6.10
2018-08-23T11:56:17.492Z,4.73
2018-08-23T11:58:46.165Z,5.40
2018-08-23T12:01:16.021Z,8.10
2018-08-23T12:03:45.209Z,5.57
2018-08-23T12:06:15.171Z,9.27
2018-08-23T12:08:44.157Z,4.87
2018-08-23T12:11:12.831Z,6.43
2018-08-23T12:13:46.346Z,8.07
2018-08-23T12:16:15.041Z,9.87
2018-08-23T12:18:43.732Z,4.37
2018-08-23T12:21:12.423Z,4.57
2018-08-23T12:23:41.124Z,7.60
2018-08-23T12:26:09.856Z,7.70
2018-08-23T12:28:43.654Z,8.07
2018-08-23T12:31:12.362Z,13.27
2018-08-23T12:33:41.060Z,7.03
2018-08-23T12:36:10.176Z,10.13
2018-08-23T12:38:44.053Z,9.93
2018-08-23T12:41:17.887Z,10.17
2018-08-23T12:43:50.761Z,10.57
2018-08-23T12:46:19.449Z,8.70
2018-08-23T12:48:48.505Z,8.67
2018-08-23T12:51:17.181Z,6.13
2018-08-23T12:53:45.875Z,8.43
2018-08-23T12:56:14.530Z,7.43
2018-08-23T12:58:43.212Z,13.73
2018-08-23T13:01:11.876Z,13.87
2018-08-23T13:03:41.154Z,7.73
2018-08-23T13:06:09.855Z,6.53
2018-08-23T13:08:38.570Z,4.70
2018-08-23T13:11:08.185Z,6.27
2018-08-23T13:13:36.792Z,7.97
2018-08-23T13:16:05.517Z,5.70
2018-08-23T13:18:34.215Z,5.17
2018-08-23T13:21:02.899Z,3.87
2018-08-23T13:23:31.624Z,7.10
2018-08-23T13:26:00.305Z,6.10
2018-08-23T13:28:29.175Z,8.07
2018-08-23T13:30:57.827Z,8.97
2018-08-23T13:33:26.887Z,6.50
2018-08-23T13:35:55.539Z,5.17
2018-08-23T13:38:24.232Z,7.43
2018-08-23T13:40:52.920Z,6.23
2018-08-23T13:43:21.596Z,5.30
2018-08-23T13:45:50.298Z,8.90
2018-08-23T13:48:19.027Z,7.13
2018-08-23T13:50:47.699Z,4.27
2018-08-23T13:53:16.381Z,8.20
2018-08-23T13:55:45.071Z,4.70
2018-08-23T13:58:13.760Z,6.03
2018-08-23T14:00:42.574Z,5.50
2018-08-23T14:03:11.880Z,6.83
2018-08-23T14:05:41.517Z,10.23
2018-08-23T14:08:10.532Z,8.10
2018-08-23T14:10:39.200Z,7.57
2018-08-23T14:13:08.176Z,6.23
2018-08-23T14:15:42.109Z,6.40
2018-08-23T14:18:10.809Z,7.50
2018-08-23T14:20:39.570Z,9.40
2018-08-23T14:23:08.288Z,8.40
2018-08-23T14:25:37.016Z,5.00
2018-08-23T14:28:06.347Z,6.57
2018-08-23T14:30:35.191Z,9.00
2018-08-23T14:33:03.892Z,7.10
2018-08-23T14:35:32.572Z,7.87
2018-08-23T14:38:01.236Z,7.60
2018-08-23T14:40:29.944Z,5.83
2018-08-23T14:42:58.586Z,5.53
2018-08-23T14:45:30.738Z,8.93
2018-08-23T14:48:04.572Z,8.83
2018-08-23T14:50:34.329Z,11.53
2018-08-23T14:53:03.207Z,9.73
2018-08-23T14:55:36.868Z,8.73
2018-08-23T14:58:05.693Z,8.03
2018-08-23T15:00:34.376Z,8.27
2018-08-23T15:03:03.152Z,12.07
2018-08-23T15:05:31.786Z,8.60
2018-08-23T15:08:00.426Z,5.43
2018-08-23T15:10:29.116Z,7.70
2018-08-23T15:12:57.795Z,5.43
2018-08-23T15:15:31.662Z,8.73
2018-08-23T15:18:00.281Z,11.73
2018-08-23T15:20:28.944Z,8.77
2018-08-23T15:22:57.629Z,10.17
2018-08-23T15:25:26.269Z,8.07
2018-08-23T15:27:54.945Z,10.43
2018-08-23T15:30:23.635Z,8.17
2018-08-23T15:32:52.357Z,8.27
2018-08-23T15:35:21.037Z,9.80
2018-08-23T15:37:49.813Z,7.77
2018-08-23T15:40:18.495Z,7.73
2018-08-23T15:42:47.168Z,8.53
2018-08-23T15:45:15.838Z,7.57
2018-08-23T15:47:44.512Z,7.00
2018-08-23T15:50:13.210Z,10.20
2018-08-23T15:52:41.875Z,8.43
2018-08-23T15:55:10.670Z,10.43
2018-08-23T15:57:39.432Z,9.07
2018-08-23T16:00:09.644Z,7.03
2018-08-23T16:02:38.329Z,7.27
2018-08-23T16:05:07.105Z,10.30
2018-08-23T16:07:35.783Z,6.87
2018-08-23T16:10:04.892Z,7.63
2018-08-23T16:12:33.805Z,10.60
2018-08-23T16:15:06.629Z,5.40
2018-08-23T16:17:40.417Z,11.97
2018-08-23T16:20:14.132Z,12.93
2018-08-23T16:22:42.982Z,11.30
2018-08-23T16:25:11.992Z,10.60
2018-08-23T16:27:40.695Z,8.03
2018-08-23T16:30:09.514Z,8.63
2018-08-23T16:32:39.976Z,10.57
2018-08-23T16:35:08.732Z,15.83
2018-08-23T16:37:37.481Z,13.37
2018-08-23T16:40:06.297Z,7.93
2018-08-23T16:42:35.018Z,9.13
2018-08-23T16:45:03.716Z,9.77
2018-08-23T16:47:32.485Z,10.93
2018-08-23T16:50:01.243Z,10.60
2018-08-23T16:52:29.976Z,12.60
2018-08-23T16:54:58.675Z,10.97
2018-08-23T16:57:27.353Z,14.07
2018-08-23T16:59:56.082Z,13.13
2018-08-23T17:02:24.857Z,11.50
2018-08-23T17:04:53.670Z,12.77
2018-08-23T17:07:22.382Z,9.33
2018-08-23T17:09:51.067Z,9.53
2018-08-23T17:12:19.806Z,13.67
2018-08-23T17:14:48.555Z,13.17
2018-08-23T17:17:22.451Z,14.90
2018-08-23T17:19:51.140Z,12.73
2018-08-23T17:22:19.812Z,17.83
2018-08-23T17:24:48.513Z,16.93
2018-08-23T17:27:17.226Z,11.57
2018-08-23T17:29:45.916Z,15.97
2018-08-23T17:32:14.664Z,17.50
2018-08-23T17:34:43.352Z,11.17
2018-08-23T17:37:12.051Z,12.23
2018-08-23T17:39:40.782Z,15.57
2018-08-23T17:42:09.456Z,10.50
2018-08-23T17:44:38.153Z,13.13
2018-08-23T17:47:06.919Z,19.47
2018-08-23T17:49:35.608Z,14.53
2018-08-23T17:52:04.356Z,14.87
2018-08-23T17:54:33.064Z,16.40
2018-08-23T17:57:01.745Z,14.20
2018-08-23T17:59:30.456Z,14.87
2018-08-23T18:01:59.125Z,13.83
2018-08-23T18:04:27.791Z,19.93
2018-08-23T18:06:56.551Z,15.93
2018-08-23T18:09:25.233Z,16.87
2018-08-23T18:11:53.959Z,17.87
2018-08-23T18:14:22.627Z,13.33
2018-08-23T18:16:56.500Z,11.80
2018-08-23T18:19:25.194Z,11.73
2018-08-23T18:21:53.944Z,16.87
2018-08-23T18:24:25.661Z,12.23
2018-08-23T18:27:01.496Z,19.43
2018-08-23T18:29:32.301Z,15.23
2018-08-23T18:32:04.128Z,11.70
2018-08-23T18:34:33.748Z,12.93
2018-08-23T18:37:03.278Z,11.07
2018-08-23T18:39:32.060Z,14.07
2018-08-23T18:42:00.944Z,11.13
2018-08-23T18:44:29.748Z,11.77
2018-08-23T18:46:58.592Z,14.60
2018-08-23T18:49:27.372Z,14.43
2018-08-23T18:51:56.126Z,11.70
2018-08-23T18:54:24.977Z,10.63
2018-08-23T18:56:53.692Z,9.87
2018-08-23T18:59:22.427Z,9.13
2018-08-23T19:01:51.144Z,20.53
2018-08-23T19:04:19.874Z,11.00
2018-08-23T19:06:48.596Z,9.97
2018-08-23T19:09:17.307Z,12.77
2018-08-23T19:11:46.000Z,13.03
2018-08-23T19:14:14.723Z,14.50
2018-08-23T19:16:48.636Z,9.40
2018-08-23T19:19:17.348Z,9.50
2018-08-23T19:21:46.121Z,11.80
2018-08-23T19:24:14.828Z,15.00
2018-08-23T19:26:43.541Z,9.77
2018-08-23T19:29:12.290Z,13.07
2018-08-23T19:31:41.083Z,10.23
2018-08-23T19:34:09.774Z,10.27
2018-08-23T19:36:38.452Z,11.73
2018-08-23T19:39:10.055Z,12.27
2018-08-23T19:41:38.808Z,10.60
2018-08-23T19:44:07.523Z,10.27
2018-08-23T19:46:41.258Z,9.03
2018-08-23T19:49:15.196Z,10.07
2018-08-23T19:51:43.988Z,9.17
2018-08-23T19:54:12.782Z,12.67
2018-08-23T19:56:41.565Z,11.80
2018-08-23T19:59:10.288Z,6.83
2018-08-23T20:01:39.135Z,8.80
2018-08-23T20:04:07.940Z,7.63
2018-08-23T20:06:36.764Z,6.00
2018-08-23T20:09:07.901Z,9.33
2018-08-23T20:11:36.717Z,7.30
2018-08-23T20:14:05.567Z,8.53
2018-08-23T20:16:34.383Z,7.70
2018-08-23T20:19:03.194Z,3.90
2018-08-23T20:21:31.996Z,11.87
2018-08-23T20:24:00.774Z,8.93
2018-08-23T20:26:29.538Z,9.87
2018-08-23T20:28:58.233Z,11.10
2018-08-23T20:31:26.945Z,6.93
2018-08-23T20:33:55.755Z,6.87
2018-08-23T20:36:24.516Z,12.87
2018-08-23T20:38:53.440Z,13.27
2018-08-23T20:41:22.193Z,7.67
2018-08-23T20:43:50.927Z,8.70
2018-08-23T20:46:19.652Z,12.93
2018-08-23T20:48:48.401Z,7.77
2018-08-23T20:51:17.126Z,8.30
2018-08-23T20:53:45.909Z,6.90
2018-08-23T20:56:14.663Z,7.30
2018-08-23T20:58:43.364Z,7.03
2018-08-23T21:01:12.121Z,8.00
2018-08-23T21:03:40.856Z,7.57
2018-08-23T21:06:09.576Z,11.47
2018-08-23T21:08:38.292Z,10.33
2018-08-23T21:11:06.968Z,8.97
2018-08-23T21:13:35.803Z,6.70
2018-08-23T21:16:04.490Z,8.37
2018-08-23T21:18:33.175Z,11.30
2018-08-23T21:21:01.910Z,7.00
2018-08-23T21:23:30.585Z,10.83
2018-08-23T21:25:59.279Z,8.00
2018-08-23T21:28:27.944Z,11.60
2018-08-23T21:30:56.604Z,8.43
2018-08-23T21:33:25.289Z,13.03
2018-08-23T21:35:53.989Z,8.80
2018-08-23T21:38:22.689Z,8.60
2018-08-23T21:40:51.403Z,9.67
2018-08-23T21:43:20.180Z,10.90
2018-08-23T21:45:48.888Z,11.87
2018-08-23T21:48:17.772Z,10.97
2018-08-23T21:50:46.438Z,11.70
2018-08-23T21:53:15.447Z,8.80
2018-08-23T21:55:44.124Z,10.27
2018-08-23T21:58:12.857Z,10.40
2018-08-23T22:00:46.658Z,10.90
2018-08-23T22:03:15.393Z,9.17
2018-08-23T22:05:44.093Z,9.03
2018-08-23T22:08:12.758Z,9.17
2018-08-23T22:10:41.480Z,10.73
2018-08-23T22:13:10.156Z,10.83
2018-08-23T22:15:43.993Z,15.50
2018-08-23T22:18:12.713Z,9.13
2018-08-23T22:20:41.431Z,6.50
2018-08-23T22:23:10.190Z,9.90
2018-08-23T22:25:39.204Z,16.47
2018-08-23T22:28:08.290Z,12.33
2018-08-23T22:30:37.304Z,8.40
2018-08-23T22:33:06.250Z,15.00
2018-08-23T22:35:35.007Z,11.87
2018-08-23T22:38:03.673Z,10.10
2018-08-23T22:40:32.351Z,11.10
2018-08-23T22:43:01.001Z,9.73
2018-08-23T22:45:29.727Z,5.60
2018-08-23T22:47:58.421Z,9.70
2018-08-23T22:50:27.127Z,9.77
2018-08-23T22:52:56.009Z,13.93
2018-08-23T22:55:24.689Z,11.63
2018-08-23T22:57:53.539Z,13.93
2018-08-23T23:00:27.491Z,11.07
2018-08-23T23:02:56.208Z,12.23
2018-08-23T23:05:25.009Z,10.90
2018-08-23T23:07:53.636Z,7.40
2018-08-23T23:10:22.324Z,9.77
2018-08-23T23:12:51.079Z,9.80
2018-08-23T23:15:25.660Z,9.23
2018-08-23T23:17:54.445Z,10.03
2018-08-23T23:20:23.132Z,14.23
2018-08-23T23:22:51.797Z,10.00
2018-08-23T23:25:20.480Z,8.93
2018-08-23T23:27:49.143Z,18.03
2018-08-23T23:30:17.813Z,12.33
2018-08-23T23:32:46.533Z,9.93
2018-08-23T23:35:15.200Z,13.97
2018-08-23T23:37:43.912Z,7.67
2018-08-23T23:40:12.615Z,8.03
2018-08-23T23:42:41.280Z,10.53
2018-08-23T23:45:10.157Z,13.17
2018-08-23T23:47:38.815Z,12.80
2018-08-23T23:50:07.795Z,13.90
2018-08-23T23:52:36.436Z,9.37
2018-08-23T23:55:05.194Z,12.17
2018-08-23T23:57:33.992Z,15.40
